sensor_id;sensor_type;location;lat;lon;timestamp;P1;durP1;ratioP1;P2;durP2;ratioP2
8708;SDS011;4391;48.678;9.280;2023-04-25T00:01:54;4.05;;;1.55;;
8708;SDS011;4391;48.678;9.280;2023-04-25T00:04:21;4.60;;;1.85;;
8708;SDS011;4391;48.678;9.280;2023-04-25T00:06:48;4.25;;;1.80;;
8708;SDS011;4391;48.678;9.280;2023-04-25T00:09:16;4.00;;;1.77;;
8708;SDS011;4391;48.678;9.280;2023-04-25T00:11:43;4.70;;;1.63;;
8708;SDS011;4391;48.678;9.280;2023-04-25T00:14:10;4.18;;;1.92;;
8708;SDS011;4391;48.678;9.280;2023-04-25T00:16:37;4.88;;;1.83;;
8708;SDS011;4391;48.678;9.280;2023-04-25T00:19:04;4.60;;;2.03;;
8708;SDS011;4391;48.678;9.280;2023-04-25T00:21:31;5.07;;;1.90;;
8708;SDS011;4391;48.678;9.280;2023-04-25T00:23:58;4.50;;;2.03;;
8708;SDS011;4391;48.678;9.280;2023-04-25T00:26:27;5.60;;;2.20;;
8708;SDS011;4391;48.678;9.280;2023-04-25T00:28:53;6.25;;;2.10;;
8708;SDS011;4391;48.678;9.280;2023-04-25T00:31:20;5.85;;;1.92;;
8708;SDS011;4391;48.678;9.280;2023-04-25T00:33:47;5.87;;;2.30;;
8708;SDS011;4391;48.678;9.280;2023-04-25T00:36:14;8.02;;;2.00;;
8708;SDS011;4391;48.678;9.280;2023-04-25T00:38:42;7.65;;;1.90;;
8708;SDS011;4391;48.678;9.280;2023-04-25T00:41:08;5.65;;;2.20;;
8708;SDS011;4391;48.678;9.280;2023-04-25T00:43:37;5.85;;;2.20;;
8708;SDS011;4391;48.678;9.280;2023-04-25T00:46:05;5.63;;;2.10;;
8708;SDS011;4391;48.678;9.280;2023-04-25T00:48:32;7.55;;;2.35;;
8708;SDS011;4391;48.678;9.280;2023-04-25T00:50:59;5.10;;;2.33;;
8708;SDS011;4391;48.678;9.280;2023-04-25T00:53:26;5.13;;;2.47;;
8708;SDS011;4391;48.678;9.280;2023-04-25T00:55:54;5.68;;;2.42;;
8708;SDS011;4391;48.678;9.280;2023-04-25T00:58:21;6.00;;;2.60;;
8708;SDS011;4391;48.678;9.280;2023-04-25T01:00:50;5.35;;;2.55;;
8708;SDS011;4391;48.678;9.280;2023-04-25T01:03:18;6.95;;;2.58;;
8708;SDS011;4391;48.678;9.280;2023-04-25T01:05:46;6.28;;;2.28;;
8708;SDS011;4391;48.678;9.280;2023-04-25T01:08:13;6.40;;;2.75;;
8708;SDS011;4391;48.678;9.280;2023-04-25T01:10:40;7.80;;;2.60;;
8708;SDS011;4391;48.678;9.280;2023-04-25T01:13:07;6.78;;;2.20;;
8708;SDS011;4391;48.678;9.280;2023-04-25T01:15:34;8.27;;;2.60;;
8708;SDS011;4391;48.678;9.280;2023-04-25T01:18:03;5.63;;;2.30;;
8708;SDS011;4391;48.678;9.280;2023-04-25T01:20:30;6.43;;;2.63;;
8708;SDS011;4391;48.678;9.280;2023-04-25T01:23:00;9.13;;;2.40;;
8708;SDS011;4391;48.678;9.280;2023-04-25T01:25:28;5.22;;;2.45;;
8708;SDS011;4391;48.678;9.280;2023-04-25T01:27:55;7.05;;;2.63;;
8708;SDS011;4391;48.678;9.280;2023-04-25T01:30:23;9.38;;;2.20;;
8708;SDS011;4391;48.678;9.280;2023-04-25T01:32:50;5.28;;;2.58;;
8708;SDS011;4391;48.678;9.280;2023-04-25T01:35:18;5.30;;;2.20;;
8708;SDS011;4391;48.678;9.280;2023-04-25T01:37:45;6.30;;;2.22;;
8708;SDS011;4391;48.678;9.280;2023-04-25T01:40:13;5.50;;;2.47;;
8708;SDS011;4391;48.678;9.280;2023-04-25T01:42:41;5.75;;;1.90;;
8708;SDS011;4391;48.678;9.280;2023-04-25T01:45:09;5.53;;;2.17;;
8708;SDS011;4391;48.678;9.280;2023-04-25T01:47:37;4.40;;;1.90;;
8708;SDS011;4391;48.678;9.280;2023-04-25T01:50:07;4.63;;;2.00;;
8708;SDS011;4391;48.678;9.280;2023-04-25T01:52:34;5.60;;;1.88;;
8708;SDS011;4391;48.678;9.280;2023-04-25T01:55:01;6.82;;;2.25;;
8708;SDS011;4391;48.678;9.280;2023-04-25T01:57:30;6.38;;;2.70;;
8708;SDS011;4391;48.678;9.280;2023-04-25T01:59:58;4.70;;;2.00;;
8708;SDS011;4391;48.678;9.280;2023-04-25T02:02:26;6.32;;;1.90;;
8708;SDS011;4391;48.678;9.280;2023-04-25T02:04:53;5.80;;;2.10;;
8708;SDS011;4391;48.678;9.280;2023-04-25T02:07:21;5.75;;;2.10;;
8708;SDS011;4391;48.678;9.280;2023-04-25T02:09:48;5.03;;;1.98;;
8708;SDS011;4391;48.678;9.280;2023-04-25T02:12:15;4.33;;;2.00;;
8708;SDS011;4391;48.678;9.280;2023-04-25T02:14:43;6.30;;;2.20;;
8708;SDS011;4391;48.678;9.280;2023-04-25T02:17:10;4.88;;;2.15;;
8708;SDS011;4391;48.678;9.280;2023-04-25T02:19:38;6.57;;;2.15;;
8708;SDS011;4391;48.678;9.280;2023-04-25T02:22:05;9.57;;;3.08;;
8708;SDS011;4391;48.678;9.280;2023-04-25T02:24:32;5.97;;;2.37;;
8708;SDS011;4391;48.678;9.280;2023-04-25T02:26:59;6.10;;;2.00;;
8708;SDS011;4391;48.678;9.280;2023-04-25T02:29:26;5.65;;;2.13;;
8708;SDS011;4391;48.678;9.280;2023-04-25T02:31:54;4.88;;;2.00;;
8708;SDS011;4391;48.678;9.280;2023-04-25T02:34:21;5.35;;;1.75;;
8708;SDS011;4391;48.678;9.280;2023-04-25T02:36:48;5.30;;;1.90;;
8708;SDS011;4391;48.678;9.280;2023-04-25T02:39:16;5.88;;;1.83;;
8708;SDS011;4391;48.678;9.280;2023-04-25T02:41:42;4.70;;;1.88;;
8708;SDS011;4391;48.678;9.280;2023-04-25T02:44:09;4.72;;;1.80;;
8708;SDS011;4391;48.678;9.280;2023-04-25T02:46:36;5.82;;;1.80;;
8708;SDS011;4391;48.678;9.280;2023-04-25T02:49:04;7.33;;;1.73;;
8708;SDS011;4391;48.678;9.280;2023-04-25T02:51:31;4.20;;;2.00;;
8708;SDS011;4391;48.678;9.280;2023-04-25T02:53:58;5.63;;;1.63;;
8708;SDS011;4391;48.678;9.280;2023-04-25T02:56:25;4.75;;;1.90;;
8708;SDS011;4391;48.678;9.280;2023-04-25T02:58:52;5.22;;;1.90;;
8708;SDS011;4391;48.678;9.280;2023-04-25T03:01:19;7.10;;;1.87;;
8708;SDS011;4391;48.678;9.280;2023-04-25T03:03:46;6.07;;;1.90;;
8708;SDS011;4391;48.678;9.280;2023-04-25T03:06:14;5.45;;;2.17;;
8708;SDS011;4391;48.678;9.280;2023-04-25T03:08:40;5.97;;;1.95;;
8708;SDS011;4391;48.678;9.280;2023-04-25T03:11:07;5.57;;;1.58;;
8708;SDS011;4391;48.678;9.280;2023-04-25T03:13:34;3.83;;;1.47;;
8708;SDS011;4391;48.678;9.280;2023-04-25T03:16:01;6.03;;;1.80;;
8708;SDS011;4391;48.678;9.280;2023-04-25T03:18:28;6.78;;;1.95;;
8708;SDS011;4391;48.678;9.280;2023-04-25T03:20:55;4.90;;;1.88;;
8708;SDS011;4391;48.678;9.280;2023-04-25T03:23:23;5.00;;;2.00;;
8708;SDS011;4391;48.678;9.280;2023-04-25T03:25:50;7.50;;;1.90;;
8708;SDS011;4391;48.678;9.280;2023-04-25T03:28:17;5.28;;;2.25;;
8708;SDS011;4391;48.678;9.280;2023-04-25T03:30:43;7.53;;;1.90;;
8708;SDS011;4391;48.678;9.280;2023-04-25T03:33:10;8.35;;;1.88;;
8708;SDS011;4391;48.678;9.280;2023-04-25T03:35:37;6.82;;;2.30;;
8708;SDS011;4391;48.678;9.280;2023-04-25T03:38:04;5.63;;;1.90;;
8708;SDS011;4391;48.678;9.280;2023-04-25T03:40:32;5.88;;;1.77;;
8708;SDS011;4391;48.678;9.280;2023-04-25T03:42:59;5.78;;;2.70;;
8708;SDS011;4391;48.678;9.280;2023-04-25T03:45:26;5.00;;;2.08;;
8708;SDS011;4391;48.678;9.280;2023-04-25T03:47:52;6.97;;;1.88;;
8708;SDS011;4391;48.678;9.280;2023-04-25T03:50:19;4.90;;;1.60;;
8708;SDS011;4391;48.678;9.280;2023-04-25T03:52:46;4.90;;;2.00;;
8708;SDS011;4391;48.678;9.280;2023-04-25T03:55:13;6.07;;;2.35;;
8708;SDS011;4391;48.678;9.280;2023-04-25T03:57:41;3.75;;;1.58;;
8708;SDS011;4391;48.678;9.280;2023-04-25T04:00:08;6.05;;;1.70;;
8708;SDS011;4391;48.678;9.280;2023-04-25T04:02:35;3.73;;;1.50;;
8708;SDS011;4391;48.678;9.280;2023-04-25T04:05:04;6.93;;;2.25;;
8708;SDS011;4391;48.678;9.280;2023-04-25T04:07:31;5.32;;;1.88;;
8708;SDS011;4391;48.678;9.280;2023-04-25T04:10:01;7.68;;;2.05;;
8708;SDS011;4391;48.678;9.280;2023-04-25T04:12:30;6.85;;;2.13;;
8708;SDS011;4391;48.678;9.280;2023-04-25T04:14:58;4.77;;;1.93;;
8708;SDS011;4391;48.678;9.280;2023-04-25T04:17:25;5.28;;;2.20;;
8708;SDS011;4391;48.678;9.280;2023-04-25T04:19:52;4.60;;;1.73;;
8708;SDS011;4391;48.678;9.280;2023-04-25T04:22:18;6.25;;;2.50;;
8708;SDS011;4391;48.678;9.280;2023-04-25T04:24:45;6.93;;;2.22;;
8708;SDS011;4391;48.678;9.280;2023-04-25T04:27:12;5.13;;;2.07;;
8708;SDS011;4391;48.678;9.280;2023-04-25T04:29:39;4.15;;;1.70;;
8708;SDS011;4391;48.678;9.280;2023-04-25T04:32:07;6.03;;;2.00;;
8708;SDS011;4391;48.678;9.280;2023-04-25T04:34:34;4.75;;;1.98;;
8708;SDS011;4391;48.678;9.280;2023-04-25T04:37:01;6.45;;;2.35;;
8708;SDS011;4391;48.678;9.280;2023-04-25T04:39:28;5.60;;;2.00;;
8708;SDS011;4391;48.678;9.280;2023-04-25T04:41:55;6.20;;;2.50;;
8708;SDS011;4391;48.678;9.280;2023-04-25T04:44:22;5.57;;;2.08;;
8708;SDS011;4391;48.678;9.280;2023-04-25T04:46:48;10.43;;;2.22;;
8708;SDS011;4391;48.678;9.280;2023-04-25T04:49:17;5.68;;;2.35;;
8708;SDS011;4391;48.678;9.280;2023-04-25T04:51:43;6.87;;;2.10;;
8708;SDS011;4391;48.678;9.280;2023-04-25T04:54:10;8.35;;;2.30;;
8708;SDS011;4391;48.678;9.280;2023-04-25T04:56:37;5.00;;;2.28;;
8708;SDS011;4391;48.678;9.280;2023-04-25T04:59:04;6.07;;;1.80;;
8708;SDS011;4391;48.678;9.280;2023-04-25T05:01:32;6.50;;;1.95;;
8708;SDS011;4391;48.678;9.280;2023-04-25T05:04:00;6.57;;;2.20;;
8708;SDS011;4391;48.678;9.280;2023-04-25T05:06:29;4.80;;;1.95;;
8708;SDS011;4391;48.678;9.280;2023-04-25T05:08:56;5.85;;;2.33;;
8708;SDS011;4391;48.678;9.280;2023-04-25T05:11:24;5.60;;;2.15;;
8708;SDS011;4391;48.678;9.280;2023-04-25T05:13:51;5.97;;;2.25;;
8708;SDS011;4391;48.678;9.280;2023-04-25T05:16:18;4.37;;;2.00;;
8708;SDS011;4391;48.678;9.280;2023-04-25T05:18:45;8.82;;;2.20;;
8708;SDS011;4391;48.678;9.280;2023-04-25T05:21:12;5.50;;;2.03;;
8708;SDS011;4391;48.678;9.280;2023-04-25T05:23:41;5.63;;;2.00;;
8708;SDS011;4391;48.678;9.280;2023-04-25T05:26:07;5.32;;;2.03;;
8708;SDS011;4391;48.678;9.280;2023-04-25T05:28:38;7.17;;;2.23;;
8708;SDS011;4391;48.678;9.280;2023-04-25T05:31:05;6.38;;;2.00;;
8708;SDS011;4391;48.678;9.280;2023-04-25T05:33:32;6.70;;;2.17;;
8708;SDS011;4391;48.678;9.280;2023-04-25T05:35:59;5.03;;;1.65;;
8708;SDS011;4391;48.678;9.280;2023-04-25T05:38:26;7.55;;;2.60;;
8708;SDS011;4391;48.678;9.280;2023-04-25T05:40:54;8.77;;;2.10;;
8708;SDS011;4391;48.678;9.280;2023-04-25T05:43:21;7.75;;;2.53;;
8708;SDS011;4391;48.678;9.280;2023-04-25T05:45:48;8.23;;;2.40;;
8708;SDS011;4391;48.678;9.280;2023-04-25T05:48:15;5.40;;;2.30;;
8708;SDS011;4391;48.678;9.280;2023-04-25T05:50:42;5.60;;;2.13;;
8708;SDS011;4391;48.678;9.280;2023-04-25T05:53:09;4.83;;;1.83;;
8708;SDS011;4391;48.678;9.280;2023-04-25T05:55:35;6.43;;;1.90;;
8708;SDS011;4391;48.678;9.280;2023-04-25T05:58:06;5.70;;;2.40;;
8708;SDS011;4391;48.678;9.280;2023-04-25T06:00:33;6.43;;;2.10;;
8708;SDS011;4391;48.678;9.280;2023-04-25T06:03:00;10.30;;;2.15;;
8708;SDS011;4391;48.678;9.280;2023-04-25T06:05:28;6.80;;;1.97;;
8708;SDS011;4391;48.678;9.280;2023-04-25T06:07:55;6.70;;;2.53;;
8708;SDS011;4391;48.678;9.280;2023-04-25T06:10:22;7.15;;;2.47;;
8708;SDS011;4391;48.678;9.280;2023-04-25T06:12:49;6.60;;;2.33;;
8708;SDS011;4391;48.678;9.280;2023-04-25T06:15:17;7.72;;;2.40;;
8708;SDS011;4391;48.678;9.280;2023-04-25T06:17:44;7.50;;;2.47;;
8708;SDS011;4391;48.678;9.280;2023-04-25T06:20:11;5.68;;;2.42;;
8708;SDS011;4391;48.678;9.280;2023-04-25T06:22:38;6.18;;;2.30;;
8708;SDS011;4391;48.678;9.280;2023-04-25T06:25:05;6.03;;;2.00;;
8708;SDS011;4391;48.678;9.280;2023-04-25T06:27:32;7.15;;;2.30;;
8708;SDS011;4391;48.678;9.280;2023-04-25T06:29:59;6.00;;;2.23;;
8708;SDS011;4391;48.678;9.280;2023-04-25T06:32:27;6.25;;;2.30;;
8708;SDS011;4391;48.678;9.280;2023-04-25T06:34:55;8.77;;;2.60;;
8708;SDS011;4391;48.678;9.280;2023-04-25T06:37:21;7.93;;;2.80;;
8708;SDS011;4391;48.678;9.280;2023-04-25T06:39:48;9.82;;;2.83;;
8708;SDS011;4391;48.678;9.280;2023-04-25T06:42:15;5.83;;;2.37;;
8708;SDS011;4391;48.678;9.280;2023-04-25T06:44:42;4.80;;;2.13;;
8708;SDS011;4391;48.678;9.280;2023-04-25T06:47:09;5.65;;;2.60;;
8708;SDS011;4391;48.678;9.280;2023-04-25T06:49:37;6.18;;;2.65;;
8708;SDS011;4391;48.678;9.280;2023-04-25T06:52:03;7.13;;;2.28;;
8708;SDS011;4391;48.678;9.280;2023-04-25T06:54:30;9.33;;;2.10;;
8708;SDS011;4391;48.678;9.280;2023-04-25T06:56:57;7.13;;;2.47;;
8708;SDS011;4391;48.678;9.280;2023-04-25T06:59:25;5.95;;;2.28;;
8708;SDS011;4391;48.678;9.280;2023-04-25T07:01:52;5.70;;;2.08;;
8708;SDS011;4391;48.678;9.280;2023-04-25T07:04:19;6.28;;;2.47;;
8708;SDS011;4391;48.678;9.280;2023-04-25T07:06:47;7.70;;;2.63;;
8708;SDS011;4391;48.678;9.280;2023-04-25T07:09:14;7.10;;;2.50;;
8708;SDS011;4391;48.678;9.280;2023-04-25T07:11:41;8.43;;;2.80;;
8708;SDS011;4391;48.678;9.280;2023-04-25T07:14:08;6.55;;;2.55;;
8708;SDS011;4391;48.678;9.280;2023-04-25T07:16:35;9.70;;;2.45;;
8708;SDS011;4391;48.678;9.280;2023-04-25T07:19:01;7.93;;;2.67;;
8708;SDS011;4391;48.678;9.280;2023-04-25T07:21:28;8.27;;;2.80;;
8708;SDS011;4391;48.678;9.280;2023-04-25T07:23:58;7.80;;;2.92;;
8708;SDS011;4391;48.678;9.280;2023-04-25T07:26:25;5.53;;;2.47;;
8708;SDS011;4391;48.678;9.280;2023-04-25T07:28:52;6.72;;;2.67;;
8708;SDS011;4391;48.678;9.280;2023-04-25T07:31:19;4.93;;;2.03;;
8708;SDS011;4391;48.678;9.280;2023-04-25T07:33:47;4.40;;;2.00;;
8708;SDS011;4391;48.678;9.280;2023-04-25T07:36:14;5.22;;;1.80;;
8708;SDS011;4391;48.678;9.280;2023-04-25T07:38:41;5.40;;;2.25;;
8708;SDS011;4391;48.678;9.280;2023-04-25T07:41:09;4.65;;;2.10;;
8708;SDS011;4391;48.678;9.280;2023-04-25T07:43:36;4.33;;;1.93;;
8708;SDS011;4391;48.678;9.280;2023-04-25T07:46:03;5.15;;;2.13;;
8708;SDS011;4391;48.678;9.280;2023-04-25T07:48:31;4.50;;;1.88;;
8708;SDS011;4391;48.678;9.280;2023-04-25T07:50:58;4.80;;;1.77;;
8708;SDS011;4391;48.678;9.280;2023-04-25T07:53:24;4.45;;;2.00;;
8708;SDS011;4391;48.678;9.280;2023-04-25T07:55:51;3.77;;;1.63;;
8708;SDS011;4391;48.678;9.280;2023-04-25T07:58:23;4.43;;;1.75;;
8708;SDS011;4391;48.678;9.280;2023-04-25T08:00:49;4.55;;;1.70;;
8708;SDS011;4391;48.678;9.280;2023-04-25T08:03:16;3.67;;;1.42;;
8708;SDS011;4391;48.678;9.280;2023-04-25T08:05:43;3.75;;;1.73;;
8708;SDS011;4391;48.678;9.280;2023-04-25T08:08:10;4.30;;;1.80;;
8708;SDS011;4391;48.678;9.280;2023-04-25T08:10:37;5.70;;;2.20;;
8708;SDS011;4391;48.678;9.280;2023-04-25T08:13:04;6.15;;;3.03;;
8708;SDS011;4391;48.678;9.280;2023-04-25T08:18:00;6.57;;;3.35;;
8708;SDS011;4391;48.678;9.280;2023-04-25T08:20:27;7.93;;;3.10;;
8708;SDS011;4391;48.678;9.280;2023-04-25T08:22:54;6.60;;;3.10;;
8708;SDS011;4391;48.678;9.280;2023-04-25T08:25:21;9.07;;;2.85;;
8708;SDS011;4391;48.678;9.280;2023-04-25T08:27:48;7.38;;;2.92;;
8708;SDS011;4391;48.678;9.280;2023-04-25T08:30:15;8.65;;;3.42;;
8708;SDS011;4391;48.678;9.280;2023-04-25T08:32:41;8.67;;;3.40;;
8708;SDS011;4391;48.678;9.280;2023-04-25T08:35:10;7.63;;;3.38;;
8708;SDS011;4391;48.678;9.280;2023-04-25T08:37:36;7.97;;;3.80;;
8708;SDS011;4391;48.678;9.280;2023-04-25T08:40:04;8.13;;;4.00;;
8708;SDS011;4391;48.678;9.280;2023-04-25T08:42:32;8.55;;;4.15;;
8708;SDS011;4391;48.678;9.280;2023-04-25T08:45:00;6.40;;;3.50;;
8708;SDS011;4391;48.678;9.280;2023-04-25T08:47:28;8.25;;;3.70;;
8708;SDS011;4391;48.678;9.280;2023-04-25T08:49:59;7.32;;;4.13;;
8708;SDS011;4391;48.678;9.280;2023-04-25T08:52:30;7.63;;;3.58;;
8708;SDS011;4391;48.678;9.280;2023-04-25T08:55:01;9.27;;;4.00;;
8708;SDS011;4391;48.678;9.280;2023-04-25T08:57:29;7.60;;;3.60;;
8708;SDS011;4391;48.678;9.280;2023-04-25T08:59:57;7.43;;;3.63;;
8708;SDS011;4391;48.678;9.280;2023-04-25T09:02:26;9.85;;;3.60;;
8708;SDS011;4391;48.678;9.280;2023-04-25T09:04:54;8.10;;;3.65;;
8708;SDS011;4391;48.678;9.280;2023-04-25T09:07:21;7.88;;;4.05;;
8708;SDS011;4391;48.678;9.280;2023-04-25T09:09:49;9.57;;;3.90;;
8708;SDS011;4391;48.678;9.280;2023-04-25T09:12:16;8.32;;;4.03;;
8708;SDS011;4391;48.678;9.280;2023-04-25T09:14:46;8.35;;;3.95;;
8708;SDS011;4391;48.678;9.280;2023-04-25T09:17:28;8.35;;;3.50;;
8708;SDS011;4391;48.678;9.280;2023-04-25T09:19:55;9.70;;;3.95;;
8708;SDS011;4391;48.678;9.280;2023-04-25T09:22:31;8.37;;;3.93;;
8708;SDS011;4391;48.678;9.280;2023-04-25T09:24:59;10.13;;;4.30;;
8708;SDS011;4391;48.678;9.280;2023-04-25T09:27:29;8.75;;;4.18;;
8708;SDS011;4391;48.678;9.280;2023-04-25T09:29:57;7.35;;;3.63;;
8708;SDS011;4391;48.678;9.280;2023-04-25T09:32:25;10.95;;;3.78;;
8708;SDS011;4391;48.678;9.280;2023-04-25T09:34:52;7.47;;;3.53;;
8708;SDS011;4391;48.678;9.280;2023-04-25T09:37:20;8.23;;;3.63;;
8708;SDS011;4391;48.678;9.280;2023-04-25T09:39:48;6.65;;;3.50;;
8708;SDS011;4391;48.678;9.280;2023-04-25T09:42:17;8.07;;;3.80;;
8708;SDS011;4391;48.678;9.280;2023-04-25T09:44:48;9.07;;;3.40;;
8708;SDS011;4391;48.678;9.280;2023-04-25T09:47:18;8.10;;;3.90;;
8708;SDS011;4391;48.678;9.280;2023-04-25T09:49:47;7.57;;;3.53;;
8708;SDS011;4391;48.678;9.280;2023-04-25T09:52:14;7.82;;;3.38;;
8708;SDS011;4391;48.678;9.280;2023-04-25T09:54:42;8.70;;;3.63;;
8708;SDS011;4391;48.678;9.280;2023-04-25T09:57:11;7.63;;;4.00;;
8708;SDS011;4391;48.678;9.280;2023-04-25T09:59:42;8.37;;;3.27;;
8708;SDS011;4391;48.678;9.280;2023-04-25T10:02:10;8.35;;;3.58;;
8708;SDS011;4391;48.678;9.280;2023-04-25T10:04:38;8.63;;;3.50;;
8708;SDS011;4391;48.678;9.280;2023-04-25T10:07:07;8.95;;;3.50;;
8708;SDS011;4391;48.678;9.280;2023-04-25T10:09:36;9.07;;;3.72;;
8708;SDS011;4391;48.678;9.280;2023-04-25T10:12:05;8.10;;;3.43;;
8708;SDS011;4391;48.678;9.280;2023-04-25T10:14:33;10.13;;;3.50;;
8708;SDS011;4391;48.678;9.280;2023-04-25T10:17:02;8.50;;;3.50;;
8708;SDS011;4391;48.678;9.280;2023-04-25T10:19:29;7.60;;;3.15;;
8708;SDS011;4391;48.678;9.280;2023-04-25T10:21:58;7.82;;;3.78;;
8708;SDS011;4391;48.678;9.280;2023-04-25T10:24:33;6.60;;;3.20;;
8708;SDS011;4391;48.678;9.280;2023-04-25T10:27:02;7.18;;;2.83;;
8708;SDS011;4391;48.678;9.280;2023-04-25T10:29:29;5.38;;;2.40;;
8708;SDS011;4391;48.678;9.280;2023-04-25T10:31:55;5.32;;;2.33;;
8708;SDS011;4391;48.678;9.280;2023-04-25T10:34:37;4.95;;;2.22;;
8708;SDS011;4391;48.678;9.280;2023-04-25T10:37:05;5.50;;;1.80;;
8708;SDS011;4391;48.678;9.280;2023-04-25T10:39:35;3.88;;;1.67;;
8708;SDS011;4391;48.678;9.280;2023-04-25T10:42:04;3.83;;;1.15;;
8708;SDS011;4391;48.678;9.280;2023-04-25T10:44:31;3.80;;;1.50;;
8708;SDS011;4391;48.678;9.280;2023-04-25T10:46:58;3.70;;;1.45;;
8708;SDS011;4391;48.678;9.280;2023-04-25T10:49:31;2.63;;;0.97;;
8708;SDS011;4391;48.678;9.280;2023-04-25T10:52:11;2.53;;;0.73;;
8708;SDS011;4391;48.678;9.280;2023-04-25T10:54:40;2.63;;;0.88;;
8708;SDS011;4391;48.678;9.280;2023-04-25T10:57:09;3.15;;;0.90;;
8708;SDS011;4391;48.678;9.280;2023-04-25T10:59:53;2.15;;;0.80;;
8708;SDS011;4391;48.678;9.280;2023-04-25T11:02:20;2.03;;;0.73;;
8708;SDS011;4391;48.678;9.280;2023-04-25T11:04:53;3.83;;;1.15;;
8708;SDS011;4391;48.678;9.280;2023-04-25T11:07:23;2.67;;;1.00;;
8708;SDS011;4391;48.678;9.280;2023-04-25T11:09:55;3.05;;;0.95;;
8708;SDS011;4391;48.678;9.280;2023-04-25T11:12:22;2.25;;;0.70;;
8708;SDS011;4391;48.678;9.280;2023-04-25T11:14:57;3.10;;;0.90;;
8708;SDS011;4391;48.678;9.280;2023-04-25T11:17:26;2.13;;;0.73;;
8708;SDS011;4391;48.678;9.280;2023-04-25T11:19:54;2.35;;;0.80;;
8708;SDS011;4391;48.678;9.280;2023-04-25T11:22:22;2.40;;;0.88;;
8708;SDS011;4391;48.678;9.280;2023-04-25T11:24:49;2.92;;;1.00;;
8708;SDS011;4391;48.678;9.280;2023-04-25T11:27:16;2.60;;;0.87;;
8708;SDS011;4391;48.678;9.280;2023-04-25T11:29:46;3.15;;;0.90;;
8708;SDS011;4391;48.678;9.280;2023-04-25T11:32:14;2.10;;;0.70;;
8708;SDS011;4391;48.678;9.280;2023-04-25T11:34:43;1.63;;;0.70;;
8708;SDS011;4391;48.678;9.280;2023-04-25T11:37:11;2.40;;;0.90;;
8708;SDS011;4391;48.678;9.280;2023-04-25T11:39:42;3.27;;;1.03;;
8708;SDS011;4391;48.678;9.280;2023-04-25T11:42:11;3.60;;;1.20;;
8708;SDS011;4391;48.678;9.280;2023-04-25T11:44:41;3.90;;;1.48;;
8708;SDS011;4391;48.678;9.280;2023-04-25T11:47:08;3.95;;;1.42;;
8708;SDS011;4391;48.678;9.280;2023-04-25T11:49:35;4.28;;;1.30;;
8708;SDS011;4391;48.678;9.280;2023-04-25T11:52:02;4.23;;;1.50;;
8708;SDS011;4391;48.678;9.280;2023-04-25T11:54:36;3.50;;;1.20;;
8708;SDS011;4391;48.678;9.280;2023-04-25T11:57:03;3.90;;;1.77;;
8708;SDS011;4391;48.678;9.280;2023-04-25T11:59:30;3.65;;;1.40;;
8708;SDS011;4391;48.678;9.280;2023-04-25T12:01:57;3.75;;;1.60;;
8708;SDS011;4391;48.678;9.280;2023-04-25T12:04:26;6.17;;;1.70;;
8708;SDS011;4391;48.678;9.280;2023-04-25T12:06:58;4.30;;;1.40;;
8708;SDS011;4391;48.678;9.280;2023-04-25T12:09:29;3.65;;;1.60;;
8708;SDS011;4391;48.678;9.280;2023-04-25T12:11:59;3.03;;;1.25;;
8708;SDS011;4391;48.678;9.280;2023-04-25T12:14:29;3.65;;;1.63;;
8708;SDS011;4391;48.678;9.280;2023-04-25T12:16:57;4.27;;;1.80;;
8708;SDS011;4391;48.678;9.280;2023-04-25T12:19:26;4.88;;;2.00;;
8708;SDS011;4391;48.678;9.280;2023-04-25T12:21:59;4.38;;;1.75;;
8708;SDS011;4391;48.678;9.280;2023-04-25T12:24:28;3.88;;;1.48;;
8708;SDS011;4391;48.678;9.280;2023-04-25T12:27:00;5.60;;;2.03;;
8708;SDS011;4391;48.678;9.280;2023-04-25T12:29:29;5.07;;;1.60;;
8708;SDS011;4391;48.678;9.280;2023-04-25T12:31:56;3.70;;;1.60;;
8708;SDS011;4391;48.678;9.280;2023-04-25T12:34:24;3.55;;;1.42;;
8708;SDS011;4391;48.678;9.280;2023-04-25T12:36:51;6.13;;;2.25;;
8708;SDS011;4391;48.678;9.280;2023-04-25T12:39:19;4.90;;;2.03;;
8708;SDS011;4391;48.678;9.280;2023-04-25T12:41:48;4.30;;;1.87;;
8708;SDS011;4391;48.678;9.280;2023-04-25T12:44:17;6.93;;;2.42;;
8708;SDS011;4391;48.678;9.280;2023-04-25T12:46:44;4.90;;;2.38;;
8708;SDS011;4391;48.678;9.280;2023-04-25T12:49:11;5.10;;;2.50;;
8708;SDS011;4391;48.678;9.280;2023-04-25T12:51:38;5.40;;;2.67;;
8708;SDS011;4391;48.678;9.280;2023-04-25T12:54:06;6.13;;;2.80;;
8708;SDS011;4391;48.678;9.280;2023-04-25T12:56:34;9.15;;;3.03;;
8708;SDS011;4391;48.678;9.280;2023-04-25T12:59:02;8.07;;;3.38;;
8708;SDS011;4391;48.678;9.280;2023-04-25T13:01:30;7.07;;;3.05;;
8708;SDS011;4391;48.678;9.280;2023-04-25T13:03:58;8.48;;;3.40;;
8708;SDS011;4391;48.678;9.280;2023-04-25T13:06:25;6.33;;;3.30;;
8708;SDS011;4391;48.678;9.280;2023-04-25T13:08:52;7.50;;;2.85;;
8708;SDS011;4391;48.678;9.280;2023-04-25T13:11:19;5.43;;;2.92;;
8708;SDS011;4391;48.678;9.280;2023-04-25T13:13:46;5.00;;;2.50;;
8708;SDS011;4391;48.678;9.280;2023-04-25T13:16:13;5.05;;;2.47;;
8708;SDS011;4391;48.678;9.280;2023-04-25T13:18:42;6.30;;;2.70;;
8708;SDS011;4391;48.678;9.280;2023-04-25T13:21:09;6.22;;;3.22;;
8708;SDS011;4391;48.678;9.280;2023-04-25T13:23:37;6.60;;;3.30;;
8708;SDS011;4391;48.678;9.280;2023-04-25T13:26:04;5.28;;;2.53;;
8708;SDS011;4391;48.678;9.280;2023-04-25T13:28:31;7.00;;;2.85;;
8708;SDS011;4391;48.678;9.280;2023-04-25T13:30:58;6.70;;;2.70;;
8708;SDS011;4391;48.678;9.280;2023-04-25T13:33:25;7.25;;;2.78;;
8708;SDS011;4391;48.678;9.280;2023-04-25T13:35:56;5.38;;;2.42;;
8708;SDS011;4391;48.678;9.280;2023-04-25T13:38:25;5.32;;;2.50;;
8708;SDS011;4391;48.678;9.280;2023-04-25T13:40:52;7.43;;;3.20;;
8708;SDS011;4391;48.678;9.280;2023-04-25T13:43:19;6.17;;;2.70;;
8708;SDS011;4391;48.678;9.280;2023-04-25T13:45:48;6.28;;;2.80;;
8708;SDS011;4391;48.678;9.280;2023-04-25T13:48:16;8.93;;;3.10;;
8708;SDS011;4391;48.678;9.280;2023-04-25T13:50:44;6.05;;;3.03;;
8708;SDS011;4391;48.678;9.280;2023-04-25T13:53:12;5.93;;;2.92;;
8708;SDS011;4391;48.678;9.280;2023-04-25T13:55:40;10.23;;;3.37;;
8708;SDS011;4391;48.678;9.280;2023-04-25T13:58:09;7.07;;;3.20;;
8708;SDS011;4391;48.678;9.280;2023-04-25T14:00:37;5.97;;;2.72;;
8708;SDS011;4391;48.678;9.280;2023-04-25T14:03:05;8.25;;;3.10;;
8708;SDS011;4391;48.678;9.280;2023-04-25T14:05:33;7.15;;;3.25;;
8708;SDS011;4391;48.678;9.280;2023-04-25T14:08:06;7.00;;;2.60;;
8708;SDS011;4391;48.678;9.280;2023-04-25T14:10:35;6.35;;;2.70;;
8708;SDS011;4391;48.678;9.280;2023-04-25T14:13:03;7.22;;;3.20;;
8708;SDS011;4391;48.678;9.280;2023-04-25T14:15:30;7.03;;;3.10;;
8708;SDS011;4391;48.678;9.280;2023-04-25T14:17:58;6.45;;;3.20;;
8708;SDS011;4391;48.678;9.280;2023-04-25T14:20:25;10.17;;;3.40;;
8708;SDS011;4391;48.678;9.280;2023-04-25T14:22:52;6.20;;;3.00;;
8708;SDS011;4391;48.678;9.280;2023-04-25T14:25:21;8.35;;;3.58;;
8708;SDS011;4391;48.678;9.280;2023-04-25T14:27:49;6.45;;;3.35;;
8708;SDS011;4391;48.678;9.280;2023-04-25T14:30:16;9.20;;;4.10;;
8708;SDS011;4391;48.678;9.280;2023-04-25T14:32:43;8.13;;;3.73;;
8708;SDS011;4391;48.678;9.280;2023-04-25T14:35:11;10.23;;;3.72;;
8708;SDS011;4391;48.678;9.280;2023-04-25T14:37:38;6.43;;;3.25;;
8708;SDS011;4391;48.678;9.280;2023-04-25T14:40:05;5.78;;;3.15;;
8708;SDS011;4391;48.678;9.280;2023-04-25T14:42:33;8.55;;;3.63;;
8708;SDS011;4391;48.678;9.280;2023-04-25T14:45:02;6.40;;;3.70;;
8708;SDS011;4391;48.678;9.280;2023-04-25T14:47:29;8.93;;;3.80;;
8708;SDS011;4391;48.678;9.280;2023-04-25T14:49:56;8.48;;;3.92;;
8708;SDS011;4391;48.678;9.280;2023-04-25T14:52:23;6.80;;;4.20;;
8708;SDS011;4391;48.678;9.280;2023-04-25T14:54:50;12.25;;;4.20;;
8708;SDS011;4391;48.678;9.280;2023-04-25T14:57:17;10.87;;;4.13;;
8708;SDS011;4391;48.678;9.280;2023-04-25T14:59:44;7.88;;;4.18;;
8708;SDS011;4391;48.678;9.280;2023-04-25T15:02:12;6.63;;;3.60;;
8708;SDS011;4391;48.678;9.280;2023-04-25T15:04:39;7.68;;;3.65;;
8708;SDS011;4391;48.678;9.280;2023-04-25T15:07:06;7.10;;;3.15;;
8708;SDS011;4391;48.678;9.280;2023-04-25T15:09:33;7.90;;;3.43;;
8708;SDS011;4391;48.678;9.280;2023-04-25T15:12:00;6.35;;;3.28;;
8708;SDS011;4391;48.678;9.280;2023-04-25T15:14:27;10.43;;;3.92;;
8708;SDS011;4391;48.678;9.280;2023-04-25T15:16:54;7.72;;;3.50;;
8708;SDS011;4391;48.678;9.280;2023-04-25T15:19:22;8.70;;;3.60;;
8708;SDS011;4391;48.678;9.280;2023-04-25T15:21:49;6.83;;;3.13;;